sensor_id;sensor_type;location;lat;lon;timestamp;pressure;altitude;pressure_sealevel;temperature;humidity
71384;BME280;67558;52.166;5.004;2023-03-19T00:01:25;101109.28;;;14.07;65.30
71384;BME280;67558;52.166;5.004;2023-03-19T00:03:51;101102.59;;;14.05;65.28
71384;BME280;67558;52.166;5.004;2023-03-19T00:06:16;101100.44;;;14.02;65.46
71384;BME280;67558;52.166;5.004;2023-03-19T00:08:41;101104.19;;;14.06;65.48
71384;BME280;67558;52.166;5.004;2023-03-19T00:11:08;101107.97;;;14.05;65.41
71384;BME280;67558;52.166;5.004;2023-03-19T00:13:35;101118.72;;;14.05;65.33
71384;BME280;67558;52.166;5.004;2023-03-19T00:16:00;101118.75;;;14.00;65.42
71384;BME280;67558;52.166;5.004;2023-03-19T00:18:26;101122.03;;;13.97;65.32
71384;BME280;67558;52.166;5.004;2023-03-19T00:20:51;101123.66;;;13.92;65.34
71384;BME280;67558;52.166;5.004;2023-03-19T00:23:16;101131.16;;;13.96;65.44
71384;BME280;67558;52.166;5.004;2023-03-19T00:25:42;101122.53;;;13.99;65.37
71384;BME280;67558;52.166;5.004;2023-03-19T00:28:08;101123.91;;;13.96;65.59
71384;BME280;67558;52.166;5.004;2023-03-19T00:30:34;101124.44;;;13.93;65.45
71384;BME280;67558;52.166;5.004;2023-03-19T00:33:00;101136.31;;;13.92;65.73
71384;BME280;67558;52.166;5.004;2023-03-19T00:35:26;101114.06;;;13.81;65.49
71384;BME280;67558;52.166;5.004;2023-03-19T00:37:52;101136.06;;;13.88;65.63
71384;BME280;67558;52.166;5.004;2023-03-19T00:40:17;101129.88;;;13.88;65.58
71384;BME280;67558;52.166;5.004;2023-03-19T00:42:42;101130.69;;;13.88;65.74
71384;BME280;67558;52.166;5.004;2023-03-19T00:45:09;101128.25;;;13.87;65.71
71384;BME280;67558;52.166;5.004;2023-03-19T00:47:35;101135.00;;;13.84;65.78
71384;BME280;67558;52.166;5.004;2023-03-19T00:50:02;101131.56;;;13.73;65.81
71384;BME280;67558;52.166;5.004;2023-03-19T00:52:27;101148.22;;;13.76;65.85
71384;BME280;67558;52.166;5.004;2023-03-19T00:54:53;101143.66;;;13.76;65.87
71384;BME280;67558;52.166;5.004;2023-03-19T00:57:18;101139.91;;;13.72;66.08
71384;BME280;67558;52.166;5.004;2023-03-19T00:59:43;101138.28;;;13.76;66.04
71384;BME280;67558;52.166;5.004;2023-03-19T01:02:09;101134.25;;;13.73;65.82
71384;BME280;67558;52.166;5.004;2023-03-19T01:04:34;101134.56;;;13.67;66.09
71384;BME280;67558;52.166;5.004;2023-03-19T01:07:00;101138.34;;;13.66;66.00
71384;BME280;67558;52.166;5.004;2023-03-19T01:09:25;101139.16;;;13.61;66.06
71384;BME280;67558;52.166;5.004;2023-03-19T01:11:51;101147.78;;;13.58;66.02
71384;BME280;67558;52.166;5.004;2023-03-19T01:14:16;101138.16;;;13.52;66.13
71384;BME280;67558;52.166;5.004;2023-03-19T01:16:42;101143.25;;;13.48;66.21
71384;BME280;67558;52.166;5.004;2023-03-19T01:19:07;101148.41;;;13.45;66.37
71384;BME280;67558;52.166;5.004;2023-03-19T01:21:33;101133.63;;;13.42;66.38
71384;BME280;67558;52.166;5.004;2023-03-19T01:24:00;101149.47;;;13.44;66.47
71384;BME280;67558;52.166;5.004;2023-03-19T01:26:26;101143.34;;;13.38;66.70
71384;BME280;67558;52.166;5.004;2023-03-19T01:28:52;101128.84;;;13.29;66.82
71384;BME280;67558;52.166;5.004;2023-03-19T01:31:18;101124.53;;;13.28;66.73
71384;BME280;67558;52.166;5.004;2023-03-19T01:33:43;101146.28;;;13.37;66.85
71384;BME280;67558;52.166;5.004;2023-03-19T01:36:09;101142.28;;;13.34;66.93
71384;BME280;67558;52.166;5.004;2023-03-19T01:38:35;101139.28;;;13.36;66.83
71384;BME280;67558;52.166;5.004;2023-03-19T01:41:00;101152.44;;;13.37;66.90
71384;BME280;67558;52.166;5.004;2023-03-19T01:43:28;101147.13;;;13.32;67.11
71384;BME280;67558;52.166;5.004;2023-03-19T01:46:30;101146.03;;;13.28;67.53
71384;BME280;67558;52.166;5.004;2023-03-19T01:48:57;101145.00;;;13.19;67.49
71384;BME280;67558;52.166;5.004;2023-03-19T01:51:27;101146.09;;;13.13;67.02
71384;BME280;67558;52.166;5.004;2023-03-19T01:53:57;101142.84;;;13.05;67.26
71384;BME280;67558;52.166;5.004;2023-03-19T01:56:32;101142.63;;;13.02;67.21
71384;BME280;67558;52.166;5.004;2023-03-19T01:59:12;101142.09;;;12.95;67.72
71384;BME280;67558;52.166;5.004;2023-03-19T02:01:46;101117.72;;;12.70;67.50
71384;BME280;67558;52.166;5.004;2023-03-19T02:04:15;101148.53;;;12.94;67.55
71384;BME280;67558;52.166;5.004;2023-03-19T02:06:41;101148.28;;;12.90;67.53
71384;BME280;67558;52.166;5.004;2023-03-19T02:09:08;101155.00;;;12.87;67.67
71384;BME280;67558;52.166;5.004;2023-03-19T02:11:35;101150.72;;;12.81;67.82
71384;BME280;67558;52.166;5.004;2023-03-19T02:14:01;101150.75;;;12.76;67.82
71384;BME280;67558;52.166;5.004;2023-03-19T02:16:27;101157.72;;;12.82;67.79
71384;BME280;67558;52.166;5.004;2023-03-19T02:18:52;101158.50;;;12.83;68.25
71384;BME280;67558;52.166;5.004;2023-03-19T02:21:19;101147.22;;;12.81;68.36
71384;BME280;67558;52.166;5.004;2023-03-19T02:26:17;101154.72;;;12.94;68.04
71384;BME280;67558;52.166;5.004;2023-03-19T02:28:45;101144.53;;;12.81;68.28
71384;BME280;67558;52.166;5.004;2023-03-19T02:31:12;101159.00;;;12.90;68.03
71384;BME280;67558;52.166;5.004;2023-03-19T02:33:38;101160.09;;;12.84;67.85
71384;BME280;67558;52.166;5.004;2023-03-19T02:36:05;101165.22;;;12.80;67.87
71384;BME280;67558;52.166;5.004;2023-03-19T02:38:33;101153.41;;;12.76;67.71
71384;BME280;67558;52.166;5.004;2023-03-19T02:41:03;101156.91;;;12.72;67.87
71384;BME280;67558;52.166;5.004;2023-03-19T02:43:33;101168.97;;;12.69;67.71
71384;BME280;67558;52.166;5.004;2023-03-19T02:46:00;101168.72;;;12.60;67.76
71384;BME280;67558;52.166;5.004;2023-03-19T02:48:26;101162.28;;;12.51;68.11
71384;BME280;67558;52.166;5.004;2023-03-19T02:50:52;101173.84;;;12.46;68.20
71384;BME280;67558;52.166;5.004;2023-03-19T02:53:17;101161.50;;;12.40;68.51
71384;BME280;67558;52.166;5.004;2023-03-19T02:55:43;101170.34;;;12.36;68.45
71384;BME280;67558;52.166;5.004;2023-03-19T02:58:08;101178.13;;;12.27;68.46
71384;BME280;67558;52.166;5.004;2023-03-19T03:00:34;101177.31;;;12.26;68.53
71384;BME280;67558;52.166;5.004;2023-03-19T03:03:00;101180.53;;;12.23;68.68
71384;BME280;67558;52.166;5.004;2023-03-19T03:05:25;101183.22;;;12.18;68.81
71384;BME280;67558;52.166;5.004;2023-03-19T03:07:51;101173.00;;;12.15;68.83
71384;BME280;67558;52.166;5.004;2023-03-19T03:10:17;101158.78;;;12.04;68.61
71384;BME280;67558;52.166;5.004;2023-03-19T03:12:42;101168.19;;;12.07;68.75
71384;BME280;67558;52.166;5.004;2023-03-19T03:15:08;101170.59;;;12.03;68.66
71384;BME280;67558;52.166;5.004;2023-03-19T03:17:38;101156.91;;;11.90;69.13
71384;BME280;67558;52.166;5.004;2023-03-19T03:20:05;101166.00;;;11.94;69.11
71384;BME280;67558;52.166;5.004;2023-03-19T03:22:31;101165.50;;;11.92;69.04
71384;BME280;67558;52.166;5.004;2023-03-19T03:24:56;101178.91;;;11.92;68.97
71384;BME280;67558;52.166;5.004;2023-03-19T03:27:22;101171.34;;;11.83;68.78
71384;BME280;67558;52.166;5.004;2023-03-19T03:29:48;101175.59;;;11.84;68.73
71384;BME280;67558;52.166;5.004;2023-03-19T03:32:13;101174.53;;;11.80;68.65
71384;BME280;67558;52.166;5.004;2023-03-19T03:34:39;101177.75;;;11.82;68.48
71384;BME280;67558;52.166;5.004;2023-03-19T03:37:05;101167.00;;;11.72;68.60
71384;BME280;67558;52.166;5.004;2023-03-19T03:39:30;101178.25;;;11.69;68.91
71384;BME280;67558;52.166;5.004;2023-03-19T03:41:56;101170.16;;;11.59;68.94
71384;BME280;67558;52.166;5.004;2023-03-19T03:44:21;101184.38;;;11.59;69.41
71384;BME280;67558;52.166;5.004;2023-03-19T03:46:46;101183.03;;;11.57;69.14
71384;BME280;67558;52.166;5.004;2023-03-19T03:49:12;101181.69;;;11.49;69.23
71384;BME280;67558;52.166;5.004;2023-03-19T03:51:37;101182.47;;;11.50;69.31
71384;BME280;67558;52.166;5.004;2023-03-19T03:54:03;101179.50;;;11.46;69.31
71384;BME280;67558;52.166;5.004;2023-03-19T03:56:28;101178.16;;;11.43;69.22
71384;BME280;67558;52.166;5.004;2023-03-19T03:58:53;101182.41;;;11.39;69.38
71384;BME280;67558;52.166;5.004;2023-03-19T04:01:19;101182.41;;;11.34;69.24
71384;BME280;67558;52.166;5.004;2023-03-19T04:03:45;101177.84;;;11.30;69.51
71384;BME280;67558;52.166;5.004;2023-03-19T04:06:18;101172.19;;;11.26;69.74
71384;BME280;67558;52.166;5.004;2023-03-19T04:08:45;101170.59;;;11.25;69.55
71384;BME280;67558;52.166;5.004;2023-03-19T04:11:11;101175.66;;;11.26;69.70
71384;BME280;67558;52.166;5.004;2023-03-19T04:13:36;101177.25;;;11.22;69.88
71384;BME280;67558;52.166;5.004;2023-03-19T04:16:03;101173.47;;;11.18;69.75
71384;BME280;67558;52.166;5.004;2023-03-19T04:18:29;101174.81;;;11.16;69.75
71384;BME280;67558;52.166;5.004;2023-03-19T04:20:54;101174.78;;;11.11;70.05
71384;BME280;67558;52.166;5.004;2023-03-19T04:23:21;101178.53;;;11.10;70.02
71384;BME280;67558;52.166;5.004;2023-03-19T04:25:46;101186.31;;;11.11;70.06
71384;BME280;67558;52.166;5.004;2023-03-19T04:28:12;101170.47;;;11.04;70.18
71384;BME280;67558;52.166;5.004;2023-03-19T04:30:37;101176.63;;;11.05;70.06
71384;BME280;67558;52.166;5.004;2023-03-19T04:33:03;101183.88;;;11.10;70.11
71384;BME280;67558;52.166;5.004;2023-03-19T04:35:29;101183.31;;;11.07;70.13
71384;BME280;67558;52.166;5.004;2023-03-19T04:37:54;101195.13;;;11.06;70.00
71384;BME280;67558;52.166;5.004;2023-03-19T04:40:20;101194.03;;;11.07;69.91
71384;BME280;67558;52.166;5.004;2023-03-19T04:42:46;101180.09;;;11.00;70.01
71384;BME280;67558;52.166;5.004;2023-03-19T04:45:11;101182.22;;;10.98;70.10
71384;BME280;67558;52.166;5.004;2023-03-19T04:47:36;101191.34;;;11.02;70.08
71384;BME280;67558;52.166;5.004;2023-03-19T04:50:02;101184.88;;;10.98;69.98
71384;BME280;67558;52.166;5.004;2023-03-19T04:52:28;101191.56;;;10.96;70.13
71384;BME280;67558;52.166;5.004;2023-03-19T04:54:54;101178.41;;;10.89;70.31
71384;BME280;67558;52.166;5.004;2023-03-19T04:57:19;101190.47;;;10.92;70.51
71384;BME280;67558;52.166;5.004;2023-03-19T04:59:45;101203.88;;;10.97;70.42
71384;BME280;67558;52.166;5.004;2023-03-19T05:02:11;101208.19;;;10.98;70.60
71384;BME280;67558;52.166;5.004;2023-03-19T05:04:36;101208.72;;;11.00;71.04
71384;BME280;67558;52.166;5.004;2023-03-19T05:07:02;101210.09;;;11.07;71.03
71384;BME280;67558;52.166;5.004;2023-03-19T05:09:27;101199.38;;;11.07;70.66
71384;BME280;67558;52.166;5.004;2023-03-19T05:11:55;101217.16;;;11.19;71.02
71384;BME280;67558;52.166;5.004;2023-03-19T05:14:20;101209.06;;;11.14;70.75
71384;BME280;67558;52.166;5.004;2023-03-19T05:16:46;101234.03;;;11.24;70.81
71384;BME280;67558;52.166;5.004;2023-03-19T05:19:11;101232.97;;;11.25;70.84
71384;BME280;67558;52.166;5.004;2023-03-19T05:21:36;101226.81;;;11.25;70.93
71384;BME280;67558;52.166;5.004;2023-03-19T05:24:02;101236.75;;;11.30;70.93
71384;BME280;67558;52.166;5.004;2023-03-19T05:26:27;101235.44;;;11.32;70.65
71384;BME280;67558;52.166;5.004;2023-03-19T05:28:53;101232.50;;;11.34;70.82
71384;BME280;67558;52.166;5.004;2023-03-19T05:31:18;101231.97;;;11.37;70.94
71384;BME280;67558;52.166;5.004;2023-03-19T05:33:43;101241.88;;;11.36;70.84
71384;BME280;67558;52.166;5.004;2023-03-19T05:36:09;101243.75;;;11.36;70.64
71384;BME280;67558;52.166;5.004;2023-03-19T05:38:34;101236.22;;;11.33;70.50
71384;BME280;67558;52.166;5.004;2023-03-19T05:41:06;101247.78;;;11.38;70.54
71384;BME280;67558;52.166;5.004;2023-03-19T05:43:32;101251.50;;;11.32;70.89
71384;BME280;67558;52.166;5.004;2023-03-19T05:45:58;101247.19;;;11.31;70.73
71384;BME280;67558;52.166;5.004;2023-03-19T05:48:24;101261.72;;;11.40;70.60
71384;BME280;67558;52.166;5.004;2023-03-19T05:50:50;101262.84;;;11.50;70.53
71384;BME280;67558;52.166;5.004;2023-03-19T05:53:17;101263.06;;;11.43;70.60
71384;BME280;67558;52.166;5.004;2023-03-19T05:55:42;101262.28;;;11.42;70.48
71384;BME280;67558;52.166;5.004;2023-03-19T05:58:08;101266.53;;;11.38;70.43
71384;BME280;67558;52.166;5.004;2023-03-19T06:00:33;101261.72;;;11.40;70.41
71384;BME280;67558;52.166;5.004;2023-03-19T06:02:59;101269.47;;;11.42;70.45
71384;BME280;67558;52.166;5.004;2023-03-19T06:05:24;101262.81;;;11.44;70.44
71384;BME280;67558;52.166;5.004;2023-03-19T06:07:50;101266.31;;;11.45;70.48
71384;BME280;67558;52.166;5.004;2023-03-19T06:10:15;101264.66;;;11.39;70.57
71384;BME280;67558;52.166;5.004;2023-03-19T06:12:40;101269.22;;;11.43;70.41
71384;BME280;67558;52.166;5.004;2023-03-19T06:15:07;101275.38;;;11.44;70.56
71384;BME280;67558;52.166;5.004;2023-03-19T06:17:33;101268.19;;;11.44;70.57
71384;BME280;67558;52.166;5.004;2023-03-19T06:19:59;101274.34;;;11.45;70.61
71384;BME280;67558;52.166;5.004;2023-03-19T06:22:24;101283.44;;;11.44;70.87
71384;BME280;67558;52.166;5.004;2023-03-19T06:24:51;101291.75;;;11.47;70.56
71384;BME280;67558;52.166;5.004;2023-03-19T06:27:16;101294.75;;;11.51;70.61
71384;BME280;67558;52.166;5.004;2023-03-19T06:29:41;101290.72;;;11.54;70.68
71384;BME280;67558;52.166;5.004;2023-03-19T06:32:07;101297.13;;;11.53;70.53
71384;BME280;67558;52.166;5.004;2023-03-19T06:34:33;101304.63;;;11.51;70.45
71384;BME280;67558;52.166;5.004;2023-03-19T06:36:58;101311.63;;;11.52;70.61
71384;BME280;67558;52.166;5.004;2023-03-19T06:39:23;101308.13;;;11.51;70.35
71384;BME280;67558;52.166;5.004;2023-03-19T06:41:49;101317.53;;;11.54;70.40
71384;BME280;67558;52.166;5.004;2023-03-19T06:44:14;101322.31;;;11.52;70.32
71384;BME280;67558;52.166;5.004;2023-03-19T06:46:40;101324.22;;;11.56;70.05
71384;BME280;67558;52.166;5.004;2023-03-19T06:49:05;101316.97;;;11.52;70.03
71384;BME280;67558;52.166;5.004;2023-03-19T06:51:31;101325.03;;;11.57;69.88
71384;BME280;67558;52.166;5.004;2023-03-19T06:53:56;101325.31;;;11.60;69.81
71384;BME280;67558;52.166;5.004;2023-03-19T06:56:21;101337.13;;;11.64;69.89
71384;BME280;67558;52.166;5.004;2023-03-19T06:58:47;101337.41;;;11.63;69.72
71384;BME280;67558;52.166;5.004;2023-03-19T07:01:12;101339.03;;;11.64;69.61
71384;BME280;67558;52.166;5.004;2023-03-19T07:03:38;101340.59;;;11.60;69.35
71384;BME280;67558;52.166;5.004;2023-03-19T07:06:03;101348.91;;;11.63;69.63
71384;BME280;67558;52.166;5.004;2023-03-19T07:08:29;101339.25;;;11.57;69.67
71384;BME280;67558;52.166;5.004;2023-03-19T07:11:06;101347.53;;;11.56;69.90
71384;BME280;67558;52.166;5.004;2023-03-19T07:13:32;101356.59;;;11.50;70.01
71384;BME280;67558;52.166;5.004;2023-03-19T07:15:58;101321.06;;;11.27;69.84
71384;BME280;67558;52.166;5.004;2023-03-19T07:18:24;101361.44;;;11.53;69.85
71384;BME280;67558;52.166;5.004;2023-03-19T07:20:49;101364.13;;;11.53;70.38
71384;BME280;67558;52.166;5.004;2023-03-19T07:23:17;101356.34;;;11.51;69.86
71384;BME280;67558;52.166;5.004;2023-03-19T07:25:42;101368.44;;;11.59;70.02
71384;BME280;67558;52.166;5.004;2023-03-19T07:28:08;101377.03;;;11.61;69.96
71384;BME280;67558;52.166;5.004;2023-03-19T07:30:33;101366.56;;;11.59;70.13
71384;BME280;67558;52.166;5.004;2023-03-19T07:32:59;101371.94;;;11.59;70.10
71384;BME280;67558;52.166;5.004;2023-03-19T07:35:25;101372.75;;;11.60;70.05
71384;BME280;67558;52.166;5.004;2023-03-19T07:37:50;101374.97;;;11.68;69.92
71384;BME280;67558;52.166;5.004;2023-03-19T07:40:16;101379.25;;;11.74;69.85
71384;BME280;67558;52.166;5.004;2023-03-19T07:42:41;101377.13;;;11.76;69.44
71384;BME280;67558;52.166;5.004;2023-03-19T07:45:07;101372.88;;;11.80;69.91
71384;BME280;67558;52.166;5.004;2023-03-19T07:47:32;101387.91;;;11.86;69.68
71384;BME280;67558;52.166;5.004;2023-03-19T07:49:58;101390.06;;;11.84;69.82
71384;BME280;67558;52.166;5.004;2023-03-19T07:52:24;101384.41;;;11.81;69.79
71384;BME280;67558;52.166;5.004;2023-03-19T07:54:50;101392.72;;;11.84;69.93
71384;BME280;67558;52.166;5.004;2023-03-19T07:57:16;101393.25;;;11.81;69.76
71384;BME280;67558;52.166;5.004;2023-03-19T07:59:42;101391.69;;;11.85;70.05
71384;BME280;67558;52.166;5.004;2023-03-19T08:02:11;101399.78;;;11.91;69.99
71384;BME280;67558;52.166;5.004;2023-03-19T08:04:37;101405.69;;;11.98;69.60
71384;BME280;67558;52.166;5.004;2023-03-19T08:07:03;101402.53;;;12.06;69.32
71384;BME280;67558;52.166;5.004;2023-03-19T08:09:28;101397.22;;;12.11;69.31
71384;BME280;67558;52.166;5.004;2023-03-19T08:11:54;101403.91;;;12.14;69.22
71384;BME280;67558;52.166;5.004;2023-03-19T08:14:19;101400.72;;;12.17;69.15
71384;BME280;67558;52.166;5.004;2023-03-19T08:16:47;101402.56;;;12.11;69.57
71384;BME280;67558;52.166;5.004;2023-03-19T08:19:13;101399.59;;;12.13;69.44
71384;BME280;67558;52.166;5.004;2023-03-19T08:21:38;101402.81;;;12.09;69.38
71384;BME280;67558;52.166;5.004;2023-03-19T08:24:04;101404.72;;;12.14;69.51
71384;BME280;67558;52.166;5.004;2023-03-19T08:26:29;101412.22;;;12.17;69.56
71384;BME280;67558;52.166;5.004;2023-03-19T08:28:57;101419.53;;;12.22;69.54
71384;BME280;67558;52.166;5.004;2023-03-19T08:31:22;101417.91;;;12.26;69.65
71384;BME280;67558;52.166;5.004;2023-03-19T08:33:48;101421.97;;;12.28;69.50
71384;BME280;67558;52.166;5.004;2023-03-19T08:36:13;101433.75;;;12.27;69.44
71384;BME280;67558;52.166;5.004;2023-03-19T08:38:39;101433.75;;;12.27;69.34
71384;BME280;67558;52.166;5.004;2023-03-19T08:41:05;101444.22;;;12.29;68.95
71384;BME280;67558;52.166;5.004;2023-03-19T08:43:32;101438.56;;;12.25;68.87
71384;BME280;67558;52.166;5.004;2023-03-19T08:45:59;101442.84;;;12.21;68.90
71384;BME280;67558;52.166;5.004;2023-03-19T08:48:25;101441.47;;;12.19;69.10
71384;BME280;67558;52.166;5.004;2023-03-19T08:50:55;101455.75;;;12.24;69.16
71384;BME280;67558;52.166;5.004;2023-03-19T08:53:22;101447.94;;;12.23;69.32
71384;BME280;67558;52.166;5.004;2023-03-19T08:55:56;101449.59;;;12.29;69.19
71384;BME280;67558;52.166;5.004;2023-03-19T08:58:22;101448.00;;;12.33;69.11
71384;BME280;67558;52.166;5.004;2023-03-19T09:00:48;101446.66;;;12.36;69.29
71384;BME280;67558;52.166;5.004;2023-03-19T09:03:15;101455.28;;;12.43;69.15
71384;BME280;67558;52.166;5.004;2023-03-19T09:05:41;101454.22;;;12.49;69.26
71384;BME280;67558;52.166;5.004;2023-03-19T09:08:06;101451.84;;;12.58;68.81
71384;BME280;67558;52.166;5.004;2023-03-19T09:10:32;101460.75;;;12.63;68.73
71384;BME280;67558;52.166;5.004;2023-03-19T09:12:57;101464.78;;;12.71;68.64
71384;BME280;67558;52.166;5.004;2023-03-19T09:15:23;101470.44;;;12.69;68.60
71384;BME280;67558;52.166;5.004;2023-03-19T09:17:48;101464.81;;;12.76;68.68
71384;BME280;67558;52.166;5.004;2023-03-19T09:20:14;101470.44;;;12.75;68.47
71384;BME280;67558;52.166;5.004;2023-03-19T09:22:39;101467.75;;;12.75;68.26
71384;BME280;67558;52.166;5.004;2023-03-19T09:25:05;101461.84;;;12.73;68.39
71384;BME280;67558;52.166;5.004;2023-03-19T09:27:31;101470.72;;;12.78;68.28
71384;BME280;67558;52.166;5.004;2023-03-19T09:29:56;101477.16;;;12.77;68.45
71384;BME280;67558;52.166;5.004;2023-03-19T09:32:22;101483.34;;;12.78;67.99
71384;BME280;67558;52.166;5.004;2023-03-19T09:34:47;101485.50;;;12.76;68.25
71384;BME280;67558;52.166;5.004;2023-03-19T09:37:13;101483.34;;;12.78;68.24
71384;BME280;67558;52.166;5.004;2023-03-19T09:39:38;101474.16;;;12.68;68.44
71384;BME280;67558;52.166;5.004;2023-03-19T09:42:29;101501.31;;;12.77;68.17
71384;BME280;67558;52.166;5.004;2023-03-19T09:44:55;101495.44;;;12.80;68.32
71384;BME280;67558;52.166;5.004;2023-03-19T09:49:57;101504.03;;;12.87;67.88
71384;BME280;67558;52.166;5.004;2023-03-19T09:52:45;101507.00;;;12.91;67.72
71384;BME280;67558;52.166;5.004;2023-03-19T09:57:49;101511.31;;;12.92;68.10
71384;BME280;67558;52.166;5.004;2023-03-19T10:00:22;101521.00;;;12.93;67.94
71384;BME280;67558;52.166;5.004;2023-03-19T10:03:04;101514.78;;;12.87;68.20
71384;BME280;67558;52.166;5.004;2023-03-19T10:11:32;101525.06;;;13.11;67.78
71384;BME280;67558;52.166;5.004;2023-03-19T10:16:48;101514.06;;;13.18;67.74
71384;BME280;67558;52.166;5.004;2023-03-19T10:19:20;101515.19;;;13.37;67.14
71384;BME280;67558;52.166;5.004;2023-03-19T10:21:53;101520.31;;;13.44;66.98
71384;BME280;67558;52.166;5.004;2023-03-19T10:26:49;101533.50;;;13.45;67.05
71384;BME280;67558;52.166;5.004;2023-03-19T10:29:22;101537.78;;;13.46;67.00
71384;BME280;67558;52.166;5.004;2023-03-19T10:31:57;101538.63;;;13.47;66.90
71384;BME280;67558;52.166;5.004;2023-03-19T10:34:32;101539.69;;;13.56;66.70
71384;BME280;67558;52.166;5.004;2023-03-19T10:37:00;101547.22;;;13.54;66.96
71384;BME280;67558;52.166;5.004;2023-03-19T10:39:29;101555.28;;;13.59;66.66
71384;BME280;67558;52.166;5.004;2023-03-19T10:42:05;101559.59;;;13.60;66.41
71384;BME280;67558;52.166;5.004;2023-03-19T10:47:14;101551.78;;;13.59;66.59
71384;BME280;67558;52.166;5.004;2023-03-19T10:49:40;101554.75;;;13.62;66.44
71384;BME280;67558;52.166;5.004;2023-03-19T10:52:17;101556.09;;;13.65;66.17
71384;BME280;67558;52.166;5.004;2023-03-19T10:54:45;101559.88;;;13.69;66.24
71384;BME280;67558;52.166;5.004;2023-03-19T10:57:24;101566.84;;;13.70;66.02
71384;BME280;67558;52.166;5.004;2023-03-19T10:59:50;101566.31;;;13.68;66.04
71384;BME280;67558;52.166;5.004;2023-03-19T11:02:24;101569.53;;;13.70;65.97
71384;BME280;67558;52.166;5.004;2023-03-19T11:05:21;101573.84;;;13.66;65.74
71384;BME280;67558;52.166;5.004;2023-03-19T11:07:54;101571.69;;;13.63;65.96
71384;BME280;67558;52.166;5.004;2023-03-19T11:10:21;101563.63;;;13.63;65.95
71384;BME280;67558;52.166;5.004;2023-03-19T11:12:59;101566.31;;;13.58;65.88
71384;BME280;67558;52.166;5.004;2023-03-19T11:15:34;101562.00;;;13.57;65.95
71384;BME280;67558;52.166;5.004;2023-03-19T11:18:06;101566.31;;;13.58;65.92
71384;BME280;67558;52.166;5.004;2023-03-19T11:20:37;101573.84;;;13.61;65.88
71384;BME280;67558;52.166;5.004;2023-03-19T11:23:13;101571.94;;;13.61;65.76
71384;BME280;67558;52.166;5.004;2023-03-19T11:25:42;101568.47;;;13.66;65.74
71384;BME280;67558;52.166;5.004;2023-03-19T11:28:13;101568.72;;;13.69;65.39
71384;BME280;67558;52.166;5.004;2023-03-19T11:39:20;101565.25;;;13.69;65.13
71384;BME280;67558;52.166;5.004;2023-03-19T11:53:29;101574.13;;;13.75;64.78
71384;BME280;67558;52.166;5.004;2023-03-19T12:04:01;101575.47;;;13.87;64.80
71384;BME280;67558;52.166;5.004;2023-03-19T12:09:21;101570.09;;;13.98;64.52
71384;BME280;67558;52.166;5.004;2023-03-19T12:14:57;101564.69;;;14.13;63.77
71384;BME280;67558;52.166;5.004;2023-03-19T12:17:38;101575.47;;;14.28;63.69
71384;BME280;67558;52.166;5.004;2023-03-19T12:20:18;101578.97;;;14.19;64.12
71384;BME280;67558;52.166;5.004;2023-03-19T12:29:12;101584.06;;;14.25;63.86
71384;BME280;67558;52.166;5.004;2023-03-19T12:34:21;101592.13;;;14.36;64.07
71384;BME280;67558;52.166;5.004;2023-03-19T12:36:56;101591.84;;;14.42;63.95
71384;BME280;67558;52.166;5.004;2023-03-19T12:39:33;101589.69;;;14.44;63.26
71384;BME280;67558;52.166;5.004;2023-03-19T12:42:03;101597.22;;;14.58;63.61
71384;BME280;67558;52.166;5.004;2023-03-19T12:44:35;101590.22;;;14.62;63.48
71384;BME280;67558;52.166;5.004;2023-03-19T12:47:11;101599.91;;;14.68;62.98
71384;BME280;67558;52.166;5.004;2023-03-19T12:49:40;101595.84;;;14.76;63.08
71384;BME280;67558;52.166;5.004;2023-03-19T12:52:18;101586.69;;;14.77;62.56
71384;BME280;67558;52.166;5.004;2023-03-19T13:00:33;101599.50;;;15.05;62.26
71384;BME280;67558;52.166;5.004;2023-03-19T13:08:54;101606.97;;;15.24;60.77
71384;BME280;67558;52.166;5.004;2023-03-19T13:11:38;101599.91;;;15.33;61.26
71384;BME280;67558;52.166;5.004;2023-03-19T13:14:21;101591.56;;;15.34;60.75
71384;BME280;67558;52.166;5.004;2023-03-19T13:17:18;101585.28;;;15.44;60.45
71384;BME280;67558;52.166;5.004;2023-03-19T13:19:48;101593.84;;;15.56;60.90
71384;BME280;67558;52.166;5.004;2023-03-19T13:22:21;101590.09;;;15.57;60.44
71384;BME280;67558;52.166;5.004;2023-03-19T13:24:49;101593.53;;;15.63;60.55
71384;BME280;67558;52.166;5.004;2023-03-19T13:27:28;101603.19;;;15.69;60.22
71384;BME280;67558;52.166;5.004;2023-03-19T13:29:57;101595.94;;;15.75;60.33
71384;BME280;67558;52.166;5.004;2023-03-19T13:32:43;101598.31;;;15.76;59.98
71384;BME280;67558;52.166;5.004;2023-03-19T13:37:41;101608.25;;;15.86;60.48
71384;BME280;67558;52.166;5.004;2023-03-19T13:40:40;101613.91;;;15.85;59.03
71384;BME280;67558;52.166;5.004;2023-03-19T13:45:52;101611.19;;;15.90;59.68
71384;BME280;67558;52.166;5.004;2023-03-19T13:56:02;101591.06;;;16.06;58.56
71384;BME280;67558;52.166;5.004;2023-03-19T13:58:29;101580.00;;;16.08;58.55
71384;BME280;67558;52.166;5.004;2023-03-19T14:03:56;101603.97;;;16.14;58.53
71384;BME280;67558;52.166;5.004;2023-03-19T14:06:34;101601.53;;;16.13;57.63
71384;BME280;67558;52.166;5.004;2023-03-19T14:09:03;101610.13;;;16.20;58.30
71384;BME280;67558;52.166;5.004;2023-03-19T14:11:31;101603.16;;;16.14;58.28
71384;BME280;67558;52.166;5.004;2023-03-19T14:14:05;101615.34;;;16.11;57.92
71384;BME280;67558;52.166;5.004;2023-03-19T14:16:34;101611.88;;;16.06;58.46
71384;BME280;67558;52.166;5.004;2023-03-19T14:19:02;101621.38;;;15.98;57.53
71384;BME280;67558;52.166;5.004;2023-03-19T14:21:32;101629.22;;;15.94;57.42
71384;BME280;67558;52.166;5.004;2023-03-19T14:24:39;101626.91;;;15.77;57.29
71384;BME280;67558;52.166;5.004;2023-03-19T14:27:27;101632.88;;;15.74;57.62